createdAt,value
2017-12-28T00:00:25.882Z,97636
2017-12-28T00:01:25.001Z,97640
2017-12-28T00:02:25.986Z,97640
2017-12-28T00:03:24.894Z,97643
2017-12-28T00:04:24.949Z,97637
2017-12-28T00:05:24.983Z,97651
2017-12-28T00:06:25.130Z,97653
2017-12-28T00:07:25.206Z,97645
2017-12-28T00:08:25.090Z,97654
2017-12-28T00:09:25.136Z,97656
2017-12-28T00:10:25.176Z,97660
2017-12-28T00:11:26.201Z,97653
2017-12-28T00:12:26.258Z,97665
2017-12-28T00:13:26.311Z,97664
2017-12-28T00:14:25.534Z,97659
2017-12-28T00:15:25.595Z,97665
2017-12-28T00:16:25.546Z,97674
2017-12-28T00:17:25.571Z,97666
2017-12-28T00:18:26.601Z,97673
2017-12-28T00:19:25.740Z,97679
2017-12-28T00:20:25.868Z,97675
2017-12-28T00:21:26.930Z,97669
2017-12-28T00:22:26.862Z,97681
2017-12-28T00:23:25.906Z,97679
2017-12-28T00:24:26.038Z,97674
2017-12-28T00:25:26.958Z,97683
2017-12-28T00:26:27.011Z,97688
2017-12-28T00:27:27.179Z,97686
2017-12-28T00:28:27.254Z,97688
2017-12-28T00:29:26.277Z,97688
2017-12-28T00:30:26.260Z,97691
2017-12-28T00:31:26.353Z,97692
2017-12-28T00:32:26.287Z,97692
2017-12-28T00:33:27.457Z,97695
2017-12-28T00:34:26.417Z,97691
2017-12-28T00:35:27.562Z,97690
2017-12-28T00:36:26.539Z,97691
2017-12-28T00:37:27.518Z,97697
2017-12-28T00:38:26.556Z,97697
2017-12-28T00:39:26.570Z,97700
2017-12-28T00:40:27.623Z,97693
2017-12-28T00:41:26.602Z,97701
2017-12-28T00:42:27.773Z,97702
2017-12-28T00:43:26.833Z,97695
2017-12-28T00:44:26.795Z,97707
2017-12-28T00:45:26.808Z,97704
2017-12-28T00:46:26.837Z,97701
2017-12-28T00:47:27.889Z,97707
2017-12-28T00:48:27.066Z,97708
2017-12-28T00:49:28.085Z,97698
2017-12-28T00:50:27.146Z,97710
2017-12-28T00:51:27.266Z,97712
2017-12-28T00:52:27.239Z,97701
2017-12-28T00:53:28.388Z,97712
2017-12-28T00:54:27.364Z,97715
2017-12-28T00:55:28.400Z,97710
2017-12-28T00:56:27.438Z,97721
2017-12-28T00:57:27.431Z,97723
2017-12-28T00:58:27.425Z,97722
2017-12-28T00:59:28.550Z,97727
2017-12-28T01:00:27.621Z,97730
2017-12-28T01:01:28.579Z,97721
2017-12-28T01:02:27.663Z,97734
2017-12-28T01:03:27.679Z,97737
2017-12-28T01:04:27.676Z,97731
2017-12-28T01:05:27.751Z,97734
2017-12-28T01:06:28.839Z,97742
2017-12-28T01:07:28.922Z,97733
2017-12-28T01:08:27.894Z,97740
2017-12-28T01:09:28.039Z,97743
2017-12-28T01:10:29.032Z,97748
2017-12-28T01:11:28.010Z,97750
2017-12-28T01:12:28.164Z,97747
2017-12-28T01:13:28.246Z,97752
2017-12-28T01:14:28.172Z,97747
2017-12-28T01:15:28.338Z,97754
2017-12-28T01:16:28.510Z,97756
2017-12-28T01:17:29.352Z,97760
2017-12-28T01:18:29.373Z,97747
2017-12-28T01:19:29.361Z,97761
2017-12-28T01:20:29.555Z,97764
2017-12-28T01:21:28.553Z,97764
2017-12-28T01:22:28.718Z,97766
2017-12-28T01:23:28.654Z,97768
2017-12-28T01:24:29.767Z,97773
2017-12-28T01:25:28.905Z,97776
2017-12-28T01:26:29.812Z,97775
2017-12-28T01:27:28.915Z,97781
2017-12-28T01:28:29.061Z,97784
2017-12-28T01:29:29.134Z,97782
2017-12-28T01:30:30.062Z,97788
2017-12-28T01:31:30.260Z,97785
2017-12-28T01:32:29.313Z,97790
2017-12-28T01:33:29.433Z,97794
2017-12-28T01:34:30.446Z,97795
2017-12-28T01:35:30.457Z,97792
2017-12-28T01:36:29.533Z,97796
2017-12-28T01:37:29.513Z,97795
2017-12-28T01:38:30.591Z,97796
2017-12-28T01:39:29.510Z,97794
2017-12-28T01:40:29.540Z,97796
2017-12-28T01:41:30.563Z,97798
2017-12-28T01:42:30.596Z,97800
2017-12-28T01:43:30.668Z,97804
2017-12-28T01:44:29.826Z,97805
2017-12-28T01:45:30.857Z,97809
2017-12-28T01:46:29.832Z,97807
2017-12-28T01:47:30.799Z,97809
2017-12-28T01:48:30.959Z,97811
2017-12-28T01:49:30.954Z,97814
2017-12-28T01:50:31.041Z,97817
2017-12-28T01:51:30.961Z,97816
2017-12-28T01:52:29.992Z,97819
2017-12-28T01:53:30.155Z,97815
2017-12-28T01:54:31.210Z,97817
2017-12-28T01:55:31.273Z,97824
2017-12-28T01:56:30.348Z,97823
2017-12-28T01:57:30.294Z,97824
2017-12-28T01:58:31.274Z,97830
2017-12-28T01:59:31.436Z,97829
2017-12-28T02:00:31.338Z,97830
2017-12-28T02:01:30.401Z,97839
2017-12-28T02:02:31.546Z,97839
2017-12-28T02:03:30.584Z,97844
2017-12-28T02:04:31.640Z,97848
2017-12-28T02:05:31.610Z,97846
2017-12-28T02:06:31.718Z,97850
2017-12-28T02:07:30.770Z,97850
2017-12-28T02:08:31.923Z,97852
2017-12-28T02:09:30.903Z,97855
2017-12-28T02:10:32.007Z,97844
2017-12-28T02:11:31.033Z,97859
2017-12-28T02:12:31.020Z,97857
2017-12-28T02:13:32.022Z,97858
2017-12-28T02:14:31.010Z,97850
2017-12-28T02:15:31.092Z,97864
2017-12-28T02:16:31.257Z,97865
2017-12-28T02:17:32.319Z,97864
2017-12-28T02:18:31.413Z,97871
2017-12-28T02:19:32.445Z,97878
2017-12-28T02:20:31.489Z,97876
2017-12-28T02:21:31.586Z,97884
2017-12-28T02:22:31.644Z,97876
2017-12-28T02:23:32.644Z,97880
2017-12-28T02:24:32.700Z,97874
2017-12-28T02:25:31.822Z,97878
2017-12-28T02:26:32.880Z,97884
2017-12-28T02:27:31.951Z,97880
2017-12-28T02:28:31.914Z,97883
2017-12-28T02:29:31.910Z,97882
2017-12-28T02:30:31.912Z,97881
2017-12-28T02:31:32.037Z,97888
2017-12-28T02:32:32.998Z,97888
2017-12-28T02:33:32.096Z,97893
2017-12-28T02:34:32.204Z,97897
2017-12-28T02:35:33.336Z,97898
2017-12-28T02:36:32.345Z,97903
2017-12-28T02:37:32.450Z,97900
2017-12-28T02:38:32.403Z,97901
2017-12-28T02:39:32.430Z,97901
2017-12-28T02:40:32.498Z,97897
2017-12-28T02:41:32.545Z,97908
2017-12-28T02:42:32.650Z,97909
2017-12-28T02:43:33.773Z,97905
2017-12-28T02:44:33.773Z,97909
2017-12-28T02:45:33.846Z,97908
2017-12-28T02:46:32.869Z,97912
2017-12-28T02:47:32.893Z,97913
2017-12-28T02:48:32.933Z,97914
2017-12-28T02:49:33.018Z,97918
2017-12-28T02:50:33.121Z,97922
2017-12-28T02:51:34.099Z,97917
2017-12-28T02:52:34.186Z,97915
2017-12-28T02:53:33.250Z,97923
2017-12-28T02:54:33.329Z,97924
2017-12-28T02:55:33.225Z,97920
2017-12-28T02:56:33.236Z,97935
2017-12-28T02:57:34.383Z,97929
2017-12-28T02:58:34.444Z,97939
2017-12-28T02:59:34.523Z,97940
2017-12-28T03:00:33.630Z,97939
2017-12-28T03:01:33.601Z,97937
2017-12-28T03:02:34.743Z,97931
2017-12-28T03:03:33.737Z,97940
2017-12-28T03:04:33.769Z,97940
2017-12-28T03:05:33.877Z,97944
2017-12-28T03:06:33.918Z,97935
2017-12-28T03:07:34.992Z,97944
2017-12-28T03:08:34.082Z,97946
2017-12-28T03:09:34.944Z,97949
2017-12-28T03:10:34.093Z,97941
2017-12-28T03:11:34.125Z,97952
2017-12-28T03:12:35.062Z,97954
2017-12-28T03:13:34.229Z,97949
2017-12-28T03:14:34.211Z,97955
2017-12-28T03:15:34.371Z,97955
2017-12-28T03:16:34.422Z,97953
2017-12-28T03:17:34.471Z,97953
2017-12-28T03:18:34.376Z,97951
2017-12-28T03:19:35.408Z,97954
2017-12-28T03:20:34.581Z,97957
2017-12-28T03:21:35.534Z,97948
2017-12-28T03:22:35.696Z,97958
2017-12-28T03:23:35.773Z,97953
2017-12-28T03:24:35.663Z,97960
2017-12-28T03:25:35.870Z,97953
2017-12-28T03:26:34.823Z,97965
2017-12-28T03:27:35.000Z,97967
2017-12-28T03:28:35.884Z,97969
2017-12-28T03:29:34.962Z,97963
2017-12-28T03:30:36.060Z,97970
2017-12-28T03:31:36.156Z,97975
2017-12-28T03:32:35.292Z,97977
2017-12-28T03:33:35.368Z,97977
2017-12-28T03:34:35.448Z,97981
2017-12-28T03:35:36.406Z,97983
2017-12-28T03:36:36.350Z,97971
2017-12-28T03:37:35.433Z,97978
2017-12-28T03:38:36.591Z,97972
2017-12-28T03:39:36.453Z,97977
2017-12-28T03:40:35.583Z,97972
2017-12-28T03:41:35.712Z,97983
2017-12-28T03:42:35.733Z,97982
2017-12-28T03:43:36.642Z,97980
2017-12-28T03:44:35.831Z,97983
2017-12-28T03:45:36.873Z,97983
2017-12-28T03:46:35.933Z,97989
2017-12-28T03:47:36.991Z,97981
2017-12-28T03:48:37.030Z,97992
2017-12-28T03:49:37.110Z,97993
2017-12-28T03:50:36.034Z,97995
2017-12-28T03:51:37.091Z,97992
2017-12-28T03:52:36.266Z,97993
2017-12-28T03:53:36.188Z,97995
2017-12-28T03:54:36.286Z,98001
2017-12-28T03:55:37.328Z,97997
2017-12-28T03:56:36.498Z,97995
2017-12-28T03:57:36.532Z,97991
2017-12-28T03:58:36.601Z,97996
2017-12-28T03:59:36.680Z,98000
2017-12-28T04:00:36.762Z,97999
2017-12-28T04:01:37.921Z,98000
2017-12-28T04:02:36.987Z,97994
2017-12-28T04:03:36.913Z,98000
2017-12-28T04:04:36.933Z,98000
2017-12-28T04:05:37.006Z,98003
2017-12-28T04:06:38.148Z,98003
2017-12-28T04:07:38.177Z,98006
2017-12-28T04:08:38.159Z,98009
2017-12-28T04:09:38.224Z,98010
2017-12-28T04:10:38.381Z,98008
2017-12-28T04:11:38.381Z,98007
2017-12-28T04:12:38.479Z,98013
2017-12-28T04:13:37.465Z,98007
2017-12-28T04:14:38.598Z,98015
2017-12-28T04:15:37.605Z,98016
2017-12-28T04:16:38.678Z,98019
2017-12-28T04:17:37.799Z,98023
2017-12-28T04:18:37.836Z,98022
2017-12-28T04:19:38.923Z,98023
2017-12-28T04:20:38.061Z,98027
2017-12-28T04:21:37.997Z,98028
2017-12-28T04:22:37.989Z,98023
2017-12-28T04:23:38.081Z,98033
2017-12-28T04:24:38.179Z,98031
2017-12-28T04:25:38.291Z,98032
2017-12-28T04:26:39.282Z,98036
2017-12-28T04:27:38.451Z,98041
2017-12-28T04:28:38.389Z,98042
2017-12-28T04:29:38.461Z,98041
2017-12-28T04:30:39.515Z,98046
2017-12-28T04:31:39.734Z,98048
2017-12-28T04:32:38.681Z,98048
2017-12-28T04:33:39.809Z,98043
2017-12-28T04:34:39.748Z,98051
2017-12-28T04:35:39.938Z,98056
2017-12-28T04:36:40.009Z,98055
2017-12-28T04:37:38.995Z,98059
2017-12-28T04:38:40.141Z,98059
2017-12-28T04:39:39.085Z,98060
2017-12-28T04:40:40.101Z,98058
2017-12-28T04:41:39.213Z,98063
2017-12-28T04:42:40.323Z,98065
2017-12-28T04:43:39.249Z,98065
2017-12-28T04:44:39.338Z,98064
2017-12-28T04:45:39.421Z,98062
2017-12-28T04:46:40.454Z,98068
2017-12-28T04:47:39.631Z,98067
2017-12-28T04:48:40.622Z,98071
2017-12-28T04:49:39.701Z,98074
2017-12-28T04:50:39.770Z,98074
2017-12-28T04:51:39.687Z,98076
2017-12-28T04:52:40.862Z,98077
2017-12-28T04:53:39.930Z,98083
2017-12-28T04:54:39.891Z,98081
2017-12-28T04:55:40.092Z,98084
2017-12-28T04:56:40.065Z,98084
2017-12-28T04:57:41.188Z,98087
2017-12-28T04:58:41.124Z,98076
2017-12-28T04:59:40.174Z,98082
2017-12-28T05:00:40.322Z,98081
2017-12-28T05:01:40.334Z,98081
2017-12-28T05:02:40.282Z,98088
2017-12-28T05:03:41.398Z,98085
2017-12-28T05:04:40.339Z,98080
2017-12-28T05:05:40.362Z,98092
2017-12-28T05:06:40.553Z,98089
2017-12-28T05:07:40.472Z,98099
2017-12-28T05:08:40.521Z,98101
2017-12-28T05:09:40.570Z,98101
2017-12-28T05:10:40.682Z,98096
2017-12-28T05:11:41.736Z,98098
2017-12-28T05:12:41.606Z,98105
2017-12-28T05:13:41.786Z,98100
2017-12-28T05:14:40.748Z,98099
2017-12-28T05:15:40.810Z,98102
2017-12-28T05:16:40.981Z,98110
2017-12-28T05:17:41.869Z,98107
2017-12-28T05:18:40.953Z,98108
2017-12-28T05:19:40.992Z,98115
2017-12-28T05:20:42.045Z,98108
2017-12-28T05:21:41.090Z,98120
2017-12-28T05:22:41.291Z,98109
2017-12-28T05:23:42.261Z,98109
2017-12-28T05:24:41.222Z,98124
2017-12-28T05:25:42.320Z,98122
2017-12-28T05:26:42.295Z,98127
2017-12-28T05:27:41.344Z,98124
2017-12-28T05:28:41.437Z,98128
2017-12-28T05:29:41.439Z,98134
2017-12-28T05:30:42.509Z,98132
2017-12-28T05:31:42.662Z,98140
2017-12-28T05:32:41.605Z,98134
2017-12-28T05:33:41.595Z,98140
2017-12-28T05:34:41.627Z,98143
2017-12-28T05:35:42.604Z,98143
2017-12-28T05:36:41.802Z,98150
2017-12-28T05:37:41.906Z,98146
2017-12-28T05:38:41.933Z,98144
2017-12-28T05:39:41.876Z,98147
2017-12-28T05:40:42.885Z,98148
2017-12-28T05:41:41.959Z,98150
2017-12-28T05:42:43.041Z,98146
2017-12-28T05:43:42.013Z,98150
2017-12-28T05:44:42.111Z,98153
2017-12-28T05:45:43.157Z,98156
2017-12-28T05:46:42.249Z,98158
2017-12-28T05:47:42.293Z,98155
2017-12-28T05:48:42.284Z,98165
2017-12-28T05:49:43.439Z,98161
2017-12-28T05:50:42.391Z,98169
2017-12-28T05:51:42.446Z,98171
2017-12-28T05:52:42.512Z,98171
2017-12-28T05:53:42.604Z,98165
2017-12-28T05:54:42.647Z,98169
2017-12-28T05:55:42.842Z,98178
2017-12-28T05:56:42.830Z,98178
2017-12-28T05:57:43.023Z,98178
2017-12-28T05:58:42.976Z,98174
2017-12-28T05:59:43.225Z,98180
2017-12-28T06:00:43.076Z,98184
2017-12-28T06:01:43.226Z,98182
2017-12-28T06:02:44.259Z,98181
2017-12-28T06:03:43.224Z,98183
2017-12-28T06:04:43.401Z,98190
2017-12-28T06:05:44.399Z,98187
2017-12-28T06:06:43.495Z,98187
2017-12-28T06:07:43.436Z,98182
2017-12-28T06:08:43.582Z,98194
2017-12-28T06:09:44.596Z,98193
2017-12-28T06:10:43.576Z,98198
2017-12-28T06:11:43.797Z,98200
2017-12-28T06:12:43.700Z,98203
2017-12-28T06:13:44.845Z,98206
2017-12-28T06:14:43.932Z,98196
2017-12-28T06:15:44.893Z,98204
2017-12-28T06:16:43.902Z,98208
2017-12-28T06:17:43.989Z,98210
2017-12-28T06:18:45.000Z,98213
2017-12-28T06:19:44.082Z,98204
2017-12-28T06:20:44.282Z,98217
2017-12-28T06:21:45.202Z,98213
2017-12-28T06:22:44.305Z,98223
2017-12-28T06:23:44.305Z,98223
2017-12-28T06:24:45.463Z,98221
2017-12-28T06:25:44.566Z,98215
2017-12-28T06:26:44.501Z,98227
2017-12-28T06:27:45.659Z,98228
2017-12-28T06:28:44.658Z,98228
2017-12-28T06:29:44.738Z,98231
2017-12-28T06:30:44.777Z,98232
2017-12-28T06:31:44.947Z,98236
2017-12-28T06:32:44.932Z,98237
2017-12-28T06:33:45.928Z,98229
2017-12-28T06:34:45.899Z,98239
2017-12-28T06:35:45.056Z,98240
2017-12-28T06:36:45.093Z,98246
2017-12-28T06:37:45.000Z,98249
2017-12-28T06:38:45.048Z,98244
2017-12-28T06:39:45.076Z,98253
2017-12-28T06:40:45.276Z,98251
2017-12-28T06:41:45.359Z,98249
2017-12-28T06:42:45.300Z,98253
2017-12-28T06:43:46.323Z,98248
2017-12-28T06:44:45.487Z,98250
2017-12-28T06:45:45.446Z,98256
2017-12-28T06:46:46.593Z,98256
2017-12-28T06:47:45.718Z,98260
2017-12-28T06:48:45.741Z,98259
2017-12-28T06:49:45.706Z,98262
2017-12-28T06:50:45.789Z,98263
2017-12-28T06:51:46.934Z,98261
2017-12-28T06:52:45.932Z,98256
2017-12-28T06:53:47.098Z,98266
2017-12-28T06:54:47.005Z,98267
2017-12-28T06:55:46.999Z,98265
2017-12-28T06:56:47.204Z,98267
2017-12-28T06:57:46.288Z,98277
2017-12-28T06:58:46.285Z,98282
2017-12-28T06:59:46.320Z,98283
2017-12-28T07:00:46.381Z,98285
2017-12-28T07:01:46.432Z,98289
2017-12-28T07:02:46.611Z,98291
2017-12-28T07:03:46.599Z,98296
2017-12-28T07:04:47.617Z,98295
2017-12-28T07:05:46.781Z,98286
2017-12-28T07:06:47.816Z,98296
2017-12-28T07:07:46.804Z,98293
2017-12-28T07:08:46.870Z,98298
2017-12-28T07:09:47.037Z,98295
2017-12-28T07:10:46.997Z,98291
2017-12-28T07:11:47.177Z,98290
2017-12-28T07:12:47.263Z,98297
2017-12-28T07:13:48.272Z,98298
2017-12-28T07:14:47.247Z,98296
2017-12-28T07:15:47.281Z,98303
2017-12-28T07:16:47.459Z,98296
2017-12-28T07:17:48.512Z,98299
2017-12-28T07:18:47.578Z,98305
2017-12-28T07:19:47.592Z,98304
2017-12-28T07:20:47.769Z,98308
2017-12-28T07:21:48.746Z,98312
2017-12-28T07:22:47.847Z,98310
2017-12-28T07:23:48.798Z,98313
2017-12-28T07:24:47.826Z,98312
2017-12-28T07:25:48.809Z,98313
2017-12-28T07:26:48.732Z,98300
2017-12-28T07:27:48.789Z,98303
2017-12-28T07:28:47.830Z,98310
2017-12-28T07:29:47.908Z,98313
2017-12-28T07:30:47.980Z,98314
2017-12-28T07:31:48.060Z,98312
2017-12-28T07:32:48.142Z,98317
2017-12-28T07:33:48.092Z,98318
2017-12-28T07:34:49.101Z,98315
2017-12-28T07:35:48.275Z,98323
2017-12-28T07:36:48.244Z,98321
2017-12-28T07:37:48.348Z,98322
2017-12-28T07:38:48.312Z,98318
2017-12-28T07:39:48.417Z,98328
2017-12-28T07:40:49.534Z,98332
2017-12-28T07:41:49.550Z,98331
2017-12-28T07:42:48.624Z,98336
2017-12-28T07:43:48.552Z,98330
2017-12-28T07:44:48.714Z,98327
2017-12-28T07:45:48.615Z,98332
2017-12-28T07:46:48.651Z,98331
2017-12-28T07:47:48.677Z,98329
2017-12-28T07:48:49.761Z,98330
2017-12-28T07:49:48.780Z,98327
2017-12-28T07:50:49.950Z,98334
2017-12-28T07:51:48.969Z,98336
2017-12-28T07:52:49.115Z,98341
2017-12-28T07:53:49.074Z,98335
2017-12-28T07:54:50.109Z,98342
2017-12-28T07:55:49.171Z,98338
2017-12-28T07:56:50.312Z,98340
2017-12-28T07:57:50.413Z,98339
2017-12-28T07:58:50.300Z,98342
2017-12-28T07:59:49.517Z,98347
2017-12-28T08:00:50.464Z,98344
2017-12-28T08:01:50.626Z,98349
2017-12-28T08:02:49.603Z,98346
2017-12-28T08:12:29.920Z,98357
2017-12-28T08:13:29.748Z,98358
2017-12-28T08:14:29.901Z,98353
2017-12-28T08:15:29.803Z,98357
2017-12-28T08:16:29.984Z,98365
2017-12-28T08:17:30.994Z,98365
2017-12-28T08:18:30.005Z,98365
2017-12-28T08:19:30.117Z,98371
2017-12-28T08:20:30.070Z,98364
2017-12-28T08:21:30.057Z,98365
2017-12-28T08:22:30.160Z,98373
2017-12-28T08:23:30.340Z,98373
2017-12-28T08:24:30.263Z,98376
2017-12-28T08:25:30.280Z,98377
2017-12-28T08:26:30.332Z,98380
2017-12-28T08:27:30.374Z,98382
2017-12-28T08:28:30.501Z,98390
2017-12-28T08:29:31.524Z,98382
2017-12-28T08:30:30.591Z,98383
2017-12-28T08:31:31.617Z,98384
2017-12-28T08:32:31.672Z,98387
2017-12-28T08:33:30.779Z,98387
2017-12-28T08:34:31.796Z,98389
2017-12-28T08:35:30.865Z,98388
2017-12-28T08:36:30.877Z,98387
2017-12-28T08:37:31.804Z,98391
2017-12-28T08:38:30.970Z,98380
2017-12-28T08:39:31.841Z,98384
2017-12-28T08:40:30.945Z,98387
2017-12-28T08:41:32.067Z,98398
2017-12-28T08:42:31.077Z,98402
2017-12-28T08:43:31.207Z,98397
2017-12-28T08:44:31.262Z,98397
2017-12-28T08:45:31.154Z,98393
2017-12-28T08:46:32.315Z,98392
2017-12-28T08:47:32.270Z,98395
2017-12-28T08:48:31.349Z,98383
2017-12-28T08:49:31.540Z,98396
2017-12-28T08:50:32.545Z,98400
2017-12-28T08:51:31.507Z,98400
2017-12-28T08:52:31.652Z,98395
2017-12-28T08:53:31.645Z,98398
2017-12-28T08:54:32.688Z,98398
2017-12-28T08:55:31.850Z,98396
2017-12-28T08:56:31.791Z,98399
2017-12-28T08:57:32.874Z,98400
2017-12-28T08:58:31.855Z,98404
2017-12-28T08:59:32.969Z,98404
2017-12-28T09:00:31.964Z,98405
2017-12-28T09:01:32.148Z,98409
2017-12-28T09:02:33.119Z,98413
2017-12-28T09:03:32.079Z,98415
2017-12-28T09:04:32.123Z,98418
2017-12-28T09:05:32.187Z,98415
2017-12-28T09:06:32.367Z,98420
2017-12-28T09:07:32.306Z,98421
2017-12-28T09:08:33.391Z,98421
2017-12-28T09:09:32.491Z,98421
2017-12-28T09:10:33.610Z,98423
2017-12-28T09:11:33.634Z,98415
2017-12-28T09:12:32.547Z,98425
2017-12-28T09:13:33.663Z,98422
2017-12-28T09:14:32.651Z,98428
2017-12-28T09:15:33.779Z,98429
2017-12-28T09:16:33.788Z,98429
2017-12-28T09:17:33.824Z,98428
2017-12-28T09:18:32.945Z,98428
2017-12-28T09:19:32.943Z,98431
2017-12-28T09:20:32.950Z,98432
2017-12-28T09:21:33.142Z,98434
2017-12-28T09:22:34.145Z,98439
2017-12-28T09:23:33.157Z,98432
2017-12-28T09:24:34.273Z,98442
2017-12-28T09:25:34.370Z,98444
2017-12-28T09:26:33.344Z,98444
2017-12-28T09:27:33.500Z,98448
2017-12-28T09:28:34.519Z,98451
2017-12-28T09:29:34.474Z,98446
2017-12-28T09:30:34.490Z,98450
2017-12-28T09:31:34.587Z,98446
2017-12-28T09:32:34.775Z,98442
2017-12-28T09:33:33.798Z,98445
2017-12-28T09:34:34.921Z,98451
2017-12-28T09:35:33.919Z,98460
2017-12-28T09:36:35.060Z,98455
2017-12-28T09:37:34.070Z,98452
2017-12-28T09:38:34.090Z,98457
2017-12-28T09:39:35.075Z,98454
2017-12-28T09:40:34.208Z,98456
2017-12-28T09:41:34.197Z,98459
2017-12-28T09:42:34.220Z,98454
2017-12-28T09:43:34.286Z,98462
2017-12-28T09:44:35.476Z,98462
2017-12-28T09:45:34.590Z,98463
2017-12-28T09:46:35.493Z,98462
2017-12-28T09:47:34.671Z,98463
2017-12-28T09:48:34.738Z,98456
2017-12-28T09:49:34.680Z,98463
2017-12-28T09:50:34.734Z,98467
2017-12-28T09:51:35.847Z,98463
2017-12-28T09:52:35.883Z,98469
2017-12-28T09:53:34.988Z,98466
2017-12-28T09:54:35.076Z,98466
2017-12-28T09:55:36.084Z,98468
2017-12-28T09:56:35.135Z,98469
2017-12-28T09:57:35.158Z,98461
2017-12-28T09:58:36.213Z,98471
2017-12-28T09:59:35.225Z,98474
2017-12-28T10:00:36.303Z,98472
2017-12-28T10:01:35.271Z,98478
2017-12-28T10:02:35.450Z,98481
2017-12-28T10:03:36.451Z,98480
2017-12-28T10:04:35.418Z,98477
2017-12-28T10:05:35.436Z,98476
2017-12-28T10:06:35.579Z,98483
2017-12-28T10:07:35.499Z,98483
2017-12-28T10:08:36.613Z,98483
2017-12-28T10:09:36.672Z,98486
2017-12-28T10:10:36.769Z,98484
2017-12-28T10:11:35.708Z,98494
2017-12-28T10:12:36.690Z,98497
2017-12-28T10:13:36.876Z,98502
2017-12-28T10:14:35.970Z,98495
2017-12-28T10:15:36.052Z,98501
2017-12-28T10:16:35.964Z,98498
2017-12-28T10:17:37.100Z,98498
2017-12-28T10:18:37.143Z,98500
2017-12-28T10:19:36.097Z,98499
2017-12-28T10:20:36.203Z,98499
2017-12-28T10:21:36.292Z,98502
2017-12-28T10:22:36.384Z,98502
2017-12-28T10:23:37.381Z,98500
2017-12-28T10:24:37.290Z,98491
2017-12-28T10:25:37.329Z,98501
2017-12-28T10:26:36.515Z,98498
2017-12-28T10:27:36.602Z,98501
2017-12-28T10:28:36.649Z,98500
2017-12-28T10:29:36.717Z,98508
2017-12-28T10:30:36.633Z,98507
2017-12-28T10:31:37.788Z,98508
2017-12-28T10:32:36.902Z,98506
2017-12-28T10:33:36.859Z,98516
2017-12-28T10:34:36.862Z,98514
2017-12-28T10:35:36.895Z,98516
2017-12-28T10:36:38.038Z,98512
2017-12-28T10:37:37.129Z,98506
2017-12-28T10:38:38.122Z,98516
2017-12-28T10:39:37.117Z,98511
2017-12-28T10:40:37.306Z,98506
2017-12-28T10:41:38.180Z,98517
2017-12-28T10:42:37.279Z,98511
2017-12-28T10:43:38.443Z,98518
2017-12-28T10:44:37.437Z,98522
2017-12-28T10:45:37.490Z,98512
2017-12-28T10:46:37.621Z,98525
2017-12-28T10:47:37.651Z,98523
2017-12-28T10:48:38.632Z,98527
2017-12-28T10:49:38.608Z,98525
2017-12-28T10:50:38.683Z,98521
2017-12-28T10:51:38.861Z,98534
2017-12-28T10:52:37.937Z,98537
2017-12-28T10:53:37.884Z,98535
2017-12-28T10:54:38.863Z,98528
2017-12-28T10:55:39.062Z,98526
2017-12-28T10:56:37.975Z,98536
2017-12-28T10:57:38.970Z,98536
2017-12-28T10:58:38.051Z,98537
2017-12-28T10:59:39.165Z,98539
2017-12-28T11:00:39.254Z,98542
2017-12-28T11:01:39.322Z,98541
2017-12-28T11:02:39.387Z,98542
2017-12-28T11:03:39.354Z,98546
2017-12-28T11:04:38.553Z,98553
2017-12-28T11:05:39.530Z,98549
2017-12-28T11:06:38.699Z,98539
2017-12-28T11:07:38.623Z,98552
2017-12-28T11:08:39.694Z,98550
2017-12-28T11:09:38.746Z,98548
2017-12-28T11:10:38.705Z,98551
2017-12-28T11:11:39.664Z,98552
2017-12-28T11:12:38.828Z,98550
2017-12-28T11:13:38.771Z,98543
2017-12-28T11:14:38.898Z,98547
2017-12-28T11:15:39.906Z,98551
2017-12-28T11:16:38.953Z,98547
2017-12-28T11:17:39.883Z,98549
2017-12-28T11:18:38.926Z,98548
2017-12-28T11:19:40.049Z,98544
2017-12-28T11:20:39.116Z,98547
2017-12-28T11:21:40.121Z,98551
2017-12-28T11:23:40.152Z,98553
2017-12-28T11:24:40.254Z,98555
2017-12-28T11:25:40.301Z,98549
2017-12-28T11:26:39.233Z,98553
2017-12-28T11:27:40.436Z,98551
2017-12-28T11:28:39.484Z,98550
2017-12-28T11:29:40.496Z,98548
2017-12-28T11:30:40.467Z,98561
2017-12-28T11:31:39.534Z,98558
2017-12-28T11:32:40.637Z,98559
2017-12-28T11:33:39.746Z,98558
2017-12-28T11:34:39.786Z,98561
2017-12-28T11:35:39.830Z,98565
2017-12-28T11:36:40.818Z,98551
2017-12-28T11:37:39.781Z,98557
2017-12-28T11:38:39.803Z,98554
2017-12-28T11:39:40.000Z,98556
2017-12-28T11:40:39.942Z,98558
2017-12-28T11:41:40.056Z,98561
2017-12-28T11:42:40.056Z,98563
2017-12-28T11:43:40.066Z,98562
2017-12-28T11:44:41.167Z,98562
2017-12-28T11:45:40.182Z,98574
2017-12-28T11:46:40.201Z,98575
2017-12-28T11:47:41.291Z,98571
2017-12-28T11:48:41.285Z,98572
2017-12-28T11:49:41.377Z,98573
2017-12-28T11:50:41.434Z,98579
2017-12-28T11:51:41.369Z,98580
2017-12-28T11:52:41.411Z,98583
2017-12-28T11:53:40.485Z,98580
2017-12-28T11:54:40.500Z,98581
2017-12-28T11:55:41.586Z,98579
2017-12-28T11:56:41.588Z,98580
2017-12-28T11:57:41.643Z,98575
2017-12-28T11:58:41.720Z,98585
2017-12-28T11:59:40.831Z,98585
2017-12-28T12:00:41.894Z,98588
2017-12-28T12:01:40.833Z,98589
2017-12-28T12:02:40.991Z,98588
2017-12-28T12:03:40.938Z,98590
2017-12-28T12:04:41.022Z,98588
2017-12-28T12:05:41.092Z,98583
2017-12-28T12:06:41.175Z,98581
2017-12-28T12:07:41.274Z,98579
2017-12-28T12:08:42.393Z,98577
2017-12-28T12:09:42.383Z,98584
2017-12-28T12:10:42.518Z,98587
2017-12-28T12:11:41.623Z,98587
2017-12-28T12:12:41.577Z,98590
2017-12-28T12:13:41.615Z,98588
2017-12-28T12:14:41.716Z,98588
2017-12-28T12:15:41.777Z,98591
2017-12-28T12:16:42.871Z,98592
2017-12-28T12:17:41.854Z,98592
2017-12-28T12:18:42.895Z,98590
2017-12-28T12:19:41.960Z,98594
2017-12-28T12:20:42.982Z,98589
2017-12-28T12:21:42.169Z,98596
2017-12-28T12:22:42.239Z,98597
2017-12-28T12:23:43.180Z,98595
2017-12-28T12:24:42.196Z,98597
2017-12-28T12:25:43.308Z,98599
2017-12-28T12:26:43.388Z,98588
2017-12-28T12:27:42.307Z,98598
2017-12-28T12:28:42.350Z,98598
2017-12-28T12:29:42.401Z,98587
2017-12-28T12:30:42.567Z,98597
2017-12-28T12:31:42.649Z,98598
2017-12-28T12:32:43.676Z,98599
2017-12-28T12:33:42.625Z,98591
2017-12-28T12:34:42.760Z,98602
2017-12-28T12:35:42.805Z,98599
2017-12-28T12:36:42.768Z,98599
2017-12-28T12:37:42.845Z,98604
2017-12-28T12:38:42.959Z,98599
2017-12-28T12:39:43.135Z,98605
2017-12-28T12:40:44.020Z,98608
2017-12-28T12:41:43.196Z,98611
2017-12-28T12:42:43.135Z,98612
2017-12-28T12:43:43.230Z,98607
2017-12-28T12:44:43.421Z,98610
2017-12-28T12:45:43.391Z,98610
2017-12-28T12:46:43.325Z,98614
2017-12-28T12:47:44.402Z,98615
2017-12-28T12:48:43.406Z,98617
2017-12-28T12:49:43.514Z,98613
2017-12-28T12:50:43.428Z,98619
2017-12-28T12:51:44.475Z,98615
2017-12-28T12:52:43.549Z,98621
2017-12-28T12:53:44.631Z,98616
2017-12-28T12:54:44.568Z,98613
2017-12-28T12:55:44.763Z,98627
2017-12-28T12:56:43.869Z,98622
2017-12-28T12:57:44.927Z,98624
2017-12-28T12:58:44.878Z,98626
2017-12-28T12:59:43.953Z,98619
2017-12-28T13:00:44.184Z,98632
2017-12-28T13:01:44.139Z,98633
2017-12-28T13:02:44.217Z,98629